sensor_id;sensor_type;location;lat;lon;timestamp;pressure;altitude;pressure_sealevel;temperature;humidity
50790;BME280;37287;47.554;7.844;2023-03-25T00:01:32;97574.28;;;7.72;100.00
50790;BME280;37287;47.554;7.844;2023-03-25T00:04:00;97582.06;;;7.78;100.00
50790;BME280;37287;47.554;7.844;2023-03-25T00:06:31;97581.34;;;7.81;100.00
50790;BME280;37287;47.554;7.844;2023-03-25T00:09:02;97577.91;;;7.84;100.00
50790;BME280;37287;47.554;7.844;2023-03-25T00:11:29;97590.94;;;7.82;100.00
50790;BME280;37287;47.554;7.844;2023-03-25T00:13:56;97589.72;;;7.75;100.00
50790;BME280;37287;47.554;7.844;2023-03-25T00:16:23;97588.53;;;7.73;100.00
50790;BME280;37287;47.554;7.844;2023-03-25T00:18:50;97581.94;;;7.70;100.00
50790;BME280;37287;47.554;7.844;2023-03-25T00:21:17;97579.56;;;7.65;100.00
50790;BME280;37287;47.554;7.844;2023-03-25T00:23:44;97583.03;;;7.66;100.00
50790;BME280;37287;47.554;7.844;2023-03-25T00:26:13;97576.88;;;7.65;100.00
50790;BME280;37287;47.554;7.844;2023-03-25T00:28:39;97580.69;;;7.64;100.00
50790;BME280;37287;47.554;7.844;2023-03-25T00:31:10;97568.25;;;7.56;100.00
50790;BME280;37287;47.554;7.844;2023-03-25T00:33:37;97571.75;;;7.56;100.00
50790;BME280;37287;47.554;7.844;2023-03-25T00:36:07;97562.94;;;7.60;100.00
50790;BME280;37287;47.554;7.844;2023-03-25T00:38:36;97558.38;;;7.64;100.00
50790;BME280;37287;47.554;7.844;2023-03-25T00:41:21;97553.03;;;7.67;100.00
50790;BME280;37287;47.554;7.844;2023-03-25T00:43:56;97564.59;;;7.68;100.00
50790;BME280;37287;47.554;7.844;2023-03-25T00:46:25;97556.19;;;7.73;100.00
50790;BME280;37287;47.554;7.844;2023-03-25T00:48:53;97564.59;;;7.68;100.00
50790;BME280;37287;47.554;7.844;2023-03-25T00:51:22;97559.91;;;7.65;100.00
50790;BME280;37287;47.554;7.844;2023-03-25T00:53:54;97561.84;;;7.64;100.00
50790;BME280;37287;47.554;7.844;2023-03-25T00:56:23;97558.75;;;7.62;100.00
50790;BME280;37287;47.554;7.844;2023-03-25T00:58:56;97551.81;;;7.61;100.00
50790;BME280;37287;47.554;7.844;2023-03-25T01:01:25;97552.94;;;7.60;100.00
50790;BME280;37287;47.554;7.844;2023-03-25T01:03:54;97552.91;;;7.56;100.00
50790;BME280;37287;47.554;7.844;2023-03-25T01:06:35;97547.06;;;7.54;100.00
50790;BME280;37287;47.554;7.844;2023-03-25T01:09:04;97550.19;;;7.56;100.00
50790;BME280;37287;47.554;7.844;2023-03-25T01:11:34;97547.50;;;7.56;100.00
50790;BME280;37287;47.554;7.844;2023-03-25T01:14:05;97550.19;;;7.56;100.00
50790;BME280;37287;47.554;7.844;2023-03-25T01:16:33;97552.53;;;7.58;100.00
50790;BME280;37287;47.554;7.844;2023-03-25T01:19:03;97546.44;;;7.65;100.00
50790;BME280;37287;47.554;7.844;2023-03-25T01:21:30;97561.94;;;7.71;99.61
50790;BME280;37287;47.554;7.844;2023-03-25T01:24:00;97546.50;;;7.68;99.39
50790;BME280;37287;47.554;7.844;2023-03-25T01:26:27;97558.50;;;7.74;98.58
50790;BME280;37287;47.554;7.844;2023-03-25T01:28:54;97552.34;;;7.74;98.50
50790;BME280;37287;47.554;7.844;2023-03-25T01:31:20;97552.75;;;7.76;98.37
50790;BME280;37287;47.554;7.844;2023-03-25T01:33:50;97545.94;;;7.82;96.77
50790;BME280;37287;47.554;7.844;2023-03-25T01:36:16;97547.03;;;7.78;98.17
50790;BME280;37287;47.554;7.844;2023-03-25T01:38:43;97540.81;;;7.73;98.68
50790;BME280;37287;47.554;7.844;2023-03-25T01:41:12;97546.69;;;7.83;95.76
50790;BME280;37287;47.554;7.844;2023-03-25T01:43:39;97544.81;;;7.87;94.41
50790;BME280;37287;47.554;7.844;2023-03-25T01:46:10;97541.41;;;7.90;93.91
50790;BME280;37287;47.554;7.844;2023-03-25T01:48:42;97541.00;;;7.88;94.39
50790;BME280;37287;47.554;7.844;2023-03-25T01:51:13;97546.38;;;7.88;93.73
50790;BME280;37287;47.554;7.844;2023-03-25T01:53:42;97527.59;;;7.95;92.19
50790;BME280;37287;47.554;7.844;2023-03-25T01:56:17;97548.03;;;7.96;92.79
50790;BME280;37287;47.554;7.844;2023-03-25T01:58:45;97545.78;;;8.02;91.77
50790;BME280;37287;47.554;7.844;2023-03-25T02:06:45;97550.03;;;8.03;94.03
50790;BME280;37287;47.554;7.844;2023-03-25T02:09:19;97538.88;;;8.04;94.16
50790;BME280;37287;47.554;7.844;2023-03-25T02:11:47;97525.81;;;8.06;93.01
50790;BME280;37287;47.554;7.844;2023-03-25T02:14:17;97513.47;;;8.05;93.34
50790;BME280;37287;47.554;7.844;2023-03-25T02:17:28;97517.50;;;8.19;91.17
50790;BME280;37287;47.554;7.844;2023-03-25T02:31:16;97690.41;;;5.72;100.00
50790;BME280;37287;47.554;7.844;2023-03-25T02:36:57;97689.63;;;5.39;100.00
50790;BME280;37287;47.554;7.844;2023-03-25T02:39:41;97686.22;;;5.26;100.00
50790;BME280;37287;47.554;7.844;2023-03-25T02:42:14;97686.72;;;5.16;100.00
50790;BME280;37287;47.554;7.844;2023-03-25T02:44:53;97695.28;;;5.06;100.00
50790;BME280;37287;47.554;7.844;2023-03-25T02:47:23;97716.00;;;4.93;100.00
50790;BME280;37287;47.554;7.844;2023-03-25T02:49:57;97718.50;;;4.86;100.00
50790;BME280;37287;47.554;7.844;2023-03-25T02:52:29;97724.25;;;4.72;100.00
50790;BME280;37287;47.554;7.844;2023-03-25T02:55:00;97698.59;;;4.58;100.00
50790;BME280;37287;47.554;7.844;2023-03-25T02:57:33;97705.97;;;4.49;100.00
50790;BME280;37287;47.554;7.844;2023-03-25T03:00:04;97689.56;;;4.38;100.00
50790;BME280;37287;47.554;7.844;2023-03-25T03:02:49;97682.56;;;4.34;100.00
50790;BME280;37287;47.554;7.844;2023-03-25T03:08:35;97670.75;;;4.22;100.00
50790;BME280;37287;47.554;7.844;2023-03-25T03:17:03;97663.28;;;4.16;100.00
50790;BME280;37287;47.554;7.844;2023-03-25T03:25:29;97647.53;;;4.14;100.00
50790;BME280;37287;47.554;7.844;2023-03-25T03:30:46;97625.34;;;4.13;100.00
50790;BME280;37287;47.554;7.844;2023-03-25T03:33:43;97628.25;;;4.08;100.00
50790;BME280;37287;47.554;7.844;2023-03-25T03:36:16;97635.06;;;4.06;100.00
50790;BME280;37287;47.554;7.844;2023-03-25T03:38:56;97648.78;;;4.04;100.00
50790;BME280;37287;47.554;7.844;2023-03-25T03:41:25;97643.44;;;4.04;100.00
50790;BME280;37287;47.554;7.844;2023-03-25T03:44:00;97648.78;;;4.04;100.00
50790;BME280;37287;47.554;7.844;2023-03-25T03:46:32;97642.31;;;4.05;100.00
50790;BME280;37287;47.554;7.844;2023-03-25T03:49:05;97647.34;;;4.07;100.00
50790;BME280;37287;47.554;7.844;2023-03-25T03:51:37;97643.88;;;4.06;100.00
50790;BME280;37287;47.554;7.844;2023-03-25T03:54:12;97639.63;;;4.05;100.00
50790;BME280;37287;47.554;7.844;2023-03-25T03:56:49;97638.06;;;4.04;100.00
50790;BME280;37287;47.554;7.844;2023-03-25T03:59:45;97639.97;;;4.04;100.00
50790;BME280;37287;47.554;7.844;2023-03-25T04:04:59;97636.75;;;3.98;100.00
50790;BME280;37287;47.554;7.844;2023-03-25T04:07:36;97639.75;;;3.96;100.00
50790;BME280;37287;47.554;7.844;2023-03-25T04:10:13;97637.78;;;3.93;100.00
50790;BME280;37287;47.554;7.844;2023-03-25T04:12:48;97642.31;;;3.93;100.00
50790;BME280;37287;47.554;7.844;2023-03-25T04:15:17;97654.72;;;3.98;100.00
50790;BME280;37287;47.554;7.844;2023-03-25T04:17:44;97667.88;;;4.03;100.00
50790;BME280;37287;47.554;7.844;2023-03-25T04:20:18;97668.09;;;4.10;100.00
50790;BME280;37287;47.554;7.844;2023-03-25T04:22:51;97666.44;;;4.05;100.00
50790;BME280;37287;47.554;7.844;2023-03-25T04:25:18;97665.41;;;4.10;100.00
50790;BME280;37287;47.554;7.844;2023-03-25T04:27:47;97651.16;;;4.06;100.00
50790;BME280;37287;47.554;7.844;2023-03-25T04:30:19;97645.09;;;4.09;100.00
50790;BME280;37287;47.554;7.844;2023-03-25T04:32:46;97632.59;;;4.13;100.00
50790;BME280;37287;47.554;7.844;2023-03-25T04:35:14;97654.59;;;4.19;100.00
50790;BME280;37287;47.554;7.844;2023-03-25T04:37:42;97644.41;;;4.24;100.00
50790;BME280;37287;47.554;7.844;2023-03-25T04:40:14;97650.88;;;4.23;100.00
50790;BME280;37287;47.554;7.844;2023-03-25T04:42:45;97653.91;;;4.22;100.00
50790;BME280;37287;47.554;7.844;2023-03-25T04:45:13;97650.88;;;4.23;100.00
50790;BME280;37287;47.554;7.844;2023-03-25T04:47:44;97642.50;;;4.25;100.00
50790;BME280;37287;47.554;7.844;2023-03-25T04:50:27;97654.09;;;4.29;100.00
50790;BME280;37287;47.554;7.844;2023-03-25T04:52:54;97652.53;;;4.28;100.00
50790;BME280;37287;47.554;7.844;2023-03-25T04:55:27;97650.09;;;4.23;100.00
50790;BME280;37287;47.554;7.844;2023-03-25T04:57:55;97646.19;;;4.20;100.00
50790;BME280;37287;47.554;7.844;2023-03-25T05:00:23;97654.66;;;4.22;100.00
50790;BME280;37287;47.554;7.844;2023-03-25T05:02:52;97661.59;;;4.23;100.00
50790;BME280;37287;47.554;7.844;2023-03-25T05:05:22;97653.34;;;4.28;100.00
50790;BME280;37287;47.554;7.844;2023-03-25T05:07:51;97654.88;;;4.29;100.00
50790;BME280;37287;47.554;7.844;2023-03-25T05:10:25;97660.91;;;4.26;100.00
50790;BME280;37287;47.554;7.844;2023-03-25T05:12:59;97643.94;;;4.22;100.00
50790;BME280;37287;47.554;7.844;2023-03-25T05:15:26;97647.31;;;4.19;100.00
50790;BME280;37287;47.554;7.844;2023-03-25T05:17:56;97648.44;;;4.18;100.00
50790;BME280;37287;47.554;7.844;2023-03-25T05:20:22;97643.75;;;4.15;100.00
50790;BME280;37287;47.554;7.844;2023-03-25T05:22:49;97638.72;;;4.13;100.00
50790;BME280;37287;47.554;7.844;2023-03-25T05:25:18;97633.81;;;4.16;100.00
50790;BME280;37287;47.554;7.844;2023-03-25T05:27:48;97635.50;;;4.20;100.00
50790;BME280;37287;47.554;7.844;2023-03-25T05:30:21;97640.03;;;4.20;100.00
50790;BME280;37287;47.554;7.844;2023-03-25T05:32:48;97637.63;;;4.15;100.00
50790;BME280;37287;47.554;7.844;2023-03-25T05:35:22;97628.44;;;4.16;100.00
50790;BME280;37287;47.554;7.844;2023-03-25T05:37:50;97636.59;;;4.19;100.00
50790;BME280;37287;47.554;7.844;2023-03-25T05:40:19;97634.81;;;4.23;100.00
50790;BME280;37287;47.554;7.844;2023-03-25T05:42:48;97641.72;;;4.24;100.00
50790;BME280;37287;47.554;7.844;2023-03-25T05:45:16;97645.94;;;4.25;100.00
50790;BME280;37287;47.554;7.844;2023-03-25T05:47:42;97648.28;;;4.27;100.00
50790;BME280;37287;47.554;7.844;2023-03-25T05:50:10;97647.53;;;4.26;100.00
50790;BME280;37287;47.554;7.844;2023-03-25T05:52:39;97652.41;;;4.37;100.00
50790;BME280;37287;47.554;7.844;2023-03-25T05:55:12;97647.50;;;4.39;100.00
50790;BME280;37287;47.554;7.844;2023-03-25T05:57:40;97640.69;;;4.41;100.00
50790;BME280;37287;47.554;7.844;2023-03-25T06:00:07;97649.91;;;4.44;100.00
50790;BME280;37287;47.554;7.844;2023-03-25T06:02:34;97640.69;;;4.41;100.00
50790;BME280;37287;47.554;7.844;2023-03-25T06:05:04;97645.34;;;4.44;100.00
50790;BME280;37287;47.554;7.844;2023-03-25T06:07:31;97641.56;;;4.45;100.00
50790;BME280;37287;47.554;7.844;2023-03-25T06:09:58;97638.53;;;4.47;100.00
50790;BME280;37287;47.554;7.844;2023-03-25T06:12:24;97642.56;;;4.41;100.00
50790;BME280;37287;47.554;7.844;2023-03-25T06:14:55;97643.34;;;4.41;100.00
50790;BME280;37287;47.554;7.844;2023-03-25T06:17:22;97649.16;;;4.43;100.00
50790;BME280;37287;47.554;7.844;2023-03-25T06:19:50;97636.28;;;4.49;100.00
50790;BME280;37287;47.554;7.844;2023-03-25T06:22:17;97633.97;;;4.63;100.00
50790;BME280;37287;47.554;7.844;2023-03-25T06:24:47;97640.88;;;4.77;100.00
50790;BME280;37287;47.554;7.844;2023-03-25T06:27:18;97650.16;;;4.95;100.00
50790;BME280;37287;47.554;7.844;2023-03-25T06:29:45;97652.34;;;5.22;100.00
50790;BME280;37287;47.554;7.844;2023-03-25T06:32:13;97655.31;;;5.32;100.00
50790;BME280;37287;47.554;7.844;2023-03-25T06:34:39;97645.28;;;5.29;100.00
50790;BME280;37287;47.554;7.844;2023-03-25T06:37:08;97655.25;;;5.29;100.00
50790;BME280;37287;47.554;7.844;2023-03-25T06:39:36;97651.50;;;5.33;100.00
50790;BME280;37287;47.554;7.844;2023-03-25T06:42:04;97651.25;;;5.39;100.00
50790;BME280;37287;47.554;7.844;2023-03-25T06:44:30;97645.44;;;5.37;100.00
50790;BME280;37287;47.554;7.844;2023-03-25T06:46:59;97650.13;;;5.40;100.00
50790;BME280;37287;47.554;7.844;2023-03-25T06:49:29;97633.31;;;5.43;100.00
50790;BME280;37287;47.554;7.844;2023-03-25T06:51:56;97635.31;;;5.46;100.00
50790;BME280;37287;47.554;7.844;2023-03-25T06:54:23;97635.50;;;5.53;100.00
50790;BME280;37287;47.554;7.844;2023-03-25T06:56:50;97625.69;;;5.61;100.00
50790;BME280;37287;47.554;7.844;2023-03-25T06:59:16;97624.13;;;5.76;100.00
50790;BME280;37287;47.554;7.844;2023-03-25T07:01:43;97617.19;;;5.75;100.00
50790;BME280;37287;47.554;7.844;2023-03-25T07:04:11;97617.88;;;5.72;100.00
50790;BME280;37287;47.554;7.844;2023-03-25T07:06:38;97626.34;;;5.74;100.00
50790;BME280;37287;47.554;7.844;2023-03-25T07:09:04;97630.19;;;5.73;100.00
50790;BME280;37287;47.554;7.844;2023-03-25T07:11:34;97631.31;;;5.72;100.00
50790;BME280;37287;47.554;7.844;2023-03-25T07:14:00;97627.81;;;5.71;100.00
50790;BME280;37287;47.554;7.844;2023-03-25T07:16:27;97633.28;;;5.75;100.00
50790;BME280;37287;47.554;7.844;2023-03-25T07:18:55;97641.09;;;5.80;100.00
50790;BME280;37287;47.554;7.844;2023-03-25T07:21:22;97644.19;;;5.82;100.00
50790;BME280;37287;47.554;7.844;2023-03-25T07:23:49;97649.56;;;5.82;100.00
50790;BME280;37287;47.554;7.844;2023-03-25T07:26:16;97642.47;;;5.74;100.00
50790;BME280;37287;47.554;7.844;2023-03-25T07:28:43;97641.69;;;5.73;100.00
50790;BME280;37287;47.554;7.844;2023-03-25T07:31:12;97648.53;;;5.71;100.00
50790;BME280;37287;47.554;7.844;2023-03-25T07:33:39;97639.72;;;5.70;100.00
50790;BME280;37287;47.554;7.844;2023-03-25T07:36:07;97645.50;;;5.72;100.00
50790;BME280;37287;47.554;7.844;2023-03-25T07:38:41;97644.03;;;5.75;100.00
50790;BME280;37287;47.554;7.844;2023-03-25T07:41:13;97654.00;;;5.74;100.00
50790;BME280;37287;47.554;7.844;2023-03-25T07:43:39;97656.34;;;5.76;100.00
50790;BME280;37287;47.554;7.844;2023-03-25T07:46:06;97655.66;;;5.79;100.00
50790;BME280;37287;47.554;7.844;2023-03-25T07:48:32;97667.97;;;5.80;100.00
50790;BME280;37287;47.554;7.844;2023-03-25T07:51:01;97657.13;;;5.76;100.00
50790;BME280;37287;47.554;7.844;2023-03-25T07:53:34;97668.56;;;5.73;100.00
50790;BME280;37287;47.554;7.844;2023-03-25T07:56:05;97666.13;;;5.68;100.00
50790;BME280;37287;47.554;7.844;2023-03-25T07:58:32;97656.44;;;5.63;100.00
50790;BME280;37287;47.554;7.844;2023-03-25T08:01:01;97655.84;;;5.70;100.00
50790;BME280;37287;47.554;7.844;2023-03-25T08:03:27;97670.13;;;5.74;100.00
50790;BME280;37287;47.554;7.844;2023-03-25T08:05:54;97660.06;;;5.71;100.00
50790;BME280;37287;47.554;7.844;2023-03-25T08:08:21;97650.00;;;5.68;100.00
50790;BME280;37287;47.554;7.844;2023-03-25T08:10:49;97647.31;;;5.68;100.00
50790;BME280;37287;47.554;7.844;2023-03-25T08:13:16;97646.63;;;5.71;100.00
50790;BME280;37287;47.554;7.844;2023-03-25T08:15:44;97658.59;;;5.74;100.00
50790;BME280;37287;47.554;7.844;2023-03-25T08:18:13;97650.97;;;5.76;100.00
50790;BME280;37287;47.554;7.844;2023-03-25T08:20:40;97642.63;;;5.81;100.00
50790;BME280;37287;47.554;7.844;2023-03-25T08:23:06;97644.34;;;5.89;100.00
50790;BME280;37287;47.554;7.844;2023-03-25T08:25:39;97655.38;;;6.00;100.00
50790;BME280;37287;47.554;7.844;2023-03-25T08:28:09;97652.50;;;6.09;100.00
50790;BME280;37287;47.554;7.844;2023-03-25T08:30:38;97639.19;;;6.16;100.00
50790;BME280;37287;47.554;7.844;2023-03-25T08:33:05;97638.31;;;6.28;100.00
50790;BME280;37287;47.554;7.844;2023-03-25T08:35:33;97629.69;;;6.38;100.00
50790;BME280;37287;47.554;7.844;2023-03-25T08:38:00;97630.88;;;6.41;100.00
50790;BME280;37287;47.554;7.844;2023-03-25T08:40:34;97625.66;;;6.48;100.00
50790;BME280;37287;47.554;7.844;2023-03-25T08:43:06;97626.56;;;6.56;100.00
50790;BME280;37287;47.554;7.844;2023-03-25T08:45:33;97626.63;;;6.59;100.00
50790;BME280;37287;47.554;7.844;2023-03-25T08:48:03;97630.47;;;6.58;100.00
50790;BME280;37287;47.554;7.844;2023-03-25T08:50:30;97627.06;;;6.61;100.00
50790;BME280;37287;47.554;7.844;2023-03-25T08:52:56;97628.88;;;6.57;100.00
50790;BME280;37287;47.554;7.844;2023-03-25T08:55:24;97627.53;;;6.67;100.00
50790;BME280;37287;47.554;7.844;2023-03-25T08:57:51;97625.28;;;6.69;100.00
50790;BME280;37287;47.554;7.844;2023-03-25T09:00:18;97624.50;;;6.68;100.00
50790;BME280;37287;47.554;7.844;2023-03-25T09:02:49;97632.56;;;6.68;100.00
50790;BME280;37287;47.554;7.844;2023-03-25T09:05:16;97642.84;;;6.63;100.00
50790;BME280;37287;47.554;7.844;2023-03-25T09:07:46;97636.53;;;6.55;100.00
50790;BME280;37287;47.554;7.844;2023-03-25T09:10:13;97647.31;;;6.55;100.00
50790;BME280;37287;47.554;7.844;2023-03-25T09:12:42;97635.56;;;6.44;100.00
50790;BME280;37287;47.554;7.844;2023-03-25T09:15:10;97634.56;;;6.32;100.00
50790;BME280;37287;47.554;7.844;2023-03-25T09:17:38;97642.19;;;6.30;100.00
50790;BME280;37287;47.554;7.844;2023-03-25T09:20:07;97629.25;;;6.36;100.00
50790;BME280;37287;47.554;7.844;2023-03-25T09:22:38;97633.16;;;6.58;100.00
50790;BME280;37287;47.554;7.844;2023-03-25T09:25:05;97633.28;;;6.65;100.00
50790;BME280;37287;47.554;7.844;2023-03-25T09:27:34;97648.28;;;6.66;100.00
50790;BME280;37287;47.554;7.844;2023-03-25T09:30:02;97619.19;;;6.72;100.00
50790;BME280;37287;47.554;7.844;2023-03-25T09:32:29;97642.34;;;6.77;100.00
50790;BME280;37287;47.554;7.844;2023-03-25T09:34:56;97637.94;;;6.88;100.00
50790;BME280;37287;47.554;7.844;2023-03-25T09:37:22;97630.34;;;6.94;100.00
50790;BME280;37287;47.554;7.844;2023-03-25T09:39:49;97636.66;;;6.82;100.00
50790;BME280;37287;47.554;7.844;2023-03-25T09:48:03;97636.09;;;6.92;100.00
50790;BME280;37287;47.554;7.844;2023-03-25T09:50:33;97659.94;;;6.94;100.00
50790;BME280;37287;47.554;7.844;2023-03-25T09:53:27;97688.66;;;6.86;100.00
50790;BME280;37287;47.554;7.844;2023-03-25T09:55:58;97725.97;;;6.68;100.00
50790;BME280;37287;47.554;7.844;2023-03-25T09:58:39;97697.97;;;6.53;100.00
50790;BME280;37287;47.554;7.844;2023-03-25T10:10:18;97722.34;;;6.80;100.00
50790;BME280;37287;47.554;7.844;2023-03-25T10:13:31;97736.34;;;6.50;100.00
50790;BME280;37287;47.554;7.844;2023-03-25T10:16:14;97715.81;;;6.61;100.00
50790;BME280;37287;47.554;7.844;2023-03-25T10:19:03;97709.88;;;7.11;100.00
50790;BME280;37287;47.554;7.844;2023-03-25T10:21:46;97692.25;;;7.36;100.00
50790;BME280;37287;47.554;7.844;2023-03-25T10:24:28;97699.88;;;8.04;100.00
50790;BME280;37287;47.554;7.844;2023-03-25T10:27:10;97714.94;;;8.08;100.00
50790;BME280;37287;47.554;7.844;2023-03-25T10:29:50;97707.47;;;7.98;100.00
50790;BME280;37287;47.554;7.844;2023-03-25T10:34:56;97715.88;;;7.93;100.00
50790;BME280;37287;47.554;7.844;2023-03-25T10:37:34;97704.25;;;7.62;100.00
50790;BME280;37287;47.554;7.844;2023-03-25T10:40:26;97701.53;;;7.62;100.00
50790;BME280;37287;47.554;7.844;2023-03-25T10:45:53;97706.38;;;7.53;100.00
50790;BME280;37287;47.554;7.844;2023-03-25T10:48:26;97705.31;;;7.81;100.00
50790;BME280;37287;47.554;7.844;2023-03-25T10:53:31;97709.38;;;8.48;100.00
50790;BME280;37287;47.554;7.844;2023-03-25T10:56:03;97710.16;;;8.78;100.00
50790;BME280;37287;47.554;7.844;2023-03-25T10:58:30;97713.59;;;9.09;100.00
50790;BME280;37287;47.554;7.844;2023-03-25T11:01:09;97717.66;;;9.30;100.00
50790;BME280;37287;47.554;7.844;2023-03-25T11:03:38;97732.47;;;9.43;100.00
50790;BME280;37287;47.554;7.844;2023-03-25T11:06:19;97728.69;;;10.00;100.00
50790;BME280;37287;47.554;7.844;2023-03-25T11:11:32;97708.66;;;10.08;100.00
50790;BME280;37287;47.554;7.844;2023-03-25T11:13:59;97699.09;;;10.22;100.00
50790;BME280;37287;47.554;7.844;2023-03-25T11:16:31;97694.41;;;10.15;100.00
50790;BME280;37287;47.554;7.844;2023-03-25T11:19:02;97696.25;;;10.04;100.00
50790;BME280;37287;47.554;7.844;2023-03-25T11:21:34;97693.44;;;9.89;100.00
50790;BME280;37287;47.554;7.844;2023-03-25T11:24:05;97692.59;;;9.78;100.00
50790;BME280;37287;47.554;7.844;2023-03-25T11:26:39;97696.69;;;9.61;100.00
50790;BME280;37287;47.554;7.844;2023-03-25T11:29:16;97695.47;;;9.51;100.00
50790;BME280;37287;47.554;7.844;2023-03-25T11:31:54;97687.78;;;9.57;100.00
50790;BME280;37287;47.554;7.844;2023-03-25T11:34:23;97692.09;;;9.61;100.00
50790;BME280;37287;47.554;7.844;2023-03-25T11:41:52;97684.06;;;9.27;100.00
50790;BME280;37287;47.554;7.844;2023-03-25T11:44:31;97675.91;;;9.24;100.00
50790;BME280;37287;47.554;7.844;2023-03-25T11:47:03;97681.81;;;9.37;100.00
50790;BME280;37287;47.554;7.844;2023-03-25T11:49:34;97677.97;;;9.38;100.00
50790;BME280;37287;47.554;7.844;2023-03-25T11:52:09;97677.59;;;9.39;100.00
50790;BME280;37287;47.554;7.844;2023-03-25T11:54:38;97678.38;;;9.40;100.00
50790;BME280;37287;47.554;7.844;2023-03-25T11:57:36;97688.47;;;9.46;100.00
50790;BME280;37287;47.554;7.844;2023-03-25T12:03:18;97666.13;;;10.02;100.00
50790;BME280;37287;47.554;7.844;2023-03-25T12:06:19;97660.31;;;10.03;100.00
50790;BME280;37287;47.554;7.844;2023-03-25T12:08:58;97662.53;;;9.87;100.00
50790;BME280;37287;47.554;7.844;2023-03-25T12:11:27;97651.69;;;9.83;100.00
50790;BME280;37287;47.554;7.844;2023-03-25T12:26:18;97644.41;;;10.61;100.00
50790;BME280;37287;47.554;7.844;2023-03-25T12:29:06;97636.22;;;10.43;88.94
50790;BME280;37287;47.554;7.844;2023-03-25T12:34:44;97628.06;;;10.36;93.26
50790;BME280;37287;47.554;7.844;2023-03-25T12:40:13;97633.78;;;10.23;91.83
50790;BME280;37287;47.554;7.844;2023-03-25T13:02:19;97622.00;;;10.60;75.92
50790;BME280;37287;47.554;7.844;2023-03-25T13:07:43;97610.41;;;10.81;76.17
50790;BME280;37287;47.554;7.844;2023-03-25T13:10:22;97590.34;;;10.97;71.46
50790;BME280;37287;47.554;7.844;2023-03-25T13:12:52;97609.28;;;10.90;72.81
50790;BME280;37287;47.554;7.844;2023-03-25T13:15:22;97605.44;;;11.12;72.59
50790;BME280;37287;47.554;7.844;2023-03-25T13:18:20;97605.84;;;11.25;73.84
50790;BME280;37287;47.554;7.844;2023-03-25T13:20:52;97588.44;;;11.19;69.84
50790;BME280;37287;47.554;7.844;2023-03-25T13:23:24;97601.97;;;11.15;66.60
50790;BME280;37287;47.554;7.844;2023-03-25T13:26:16;97608.94;;;11.09;66.53
50790;BME280;37287;47.554;7.844;2023-03-25T13:28:46;97602.75;;;11.09;66.95
50790;BME280;37287;47.554;7.844;2023-03-25T13:31:19;97589.56;;;10.93;65.10
50790;BME280;37287;47.554;7.844;2023-03-25T13:33:52;97585.66;;;10.79;64.66
50790;BME280;37287;47.554;7.844;2023-03-25T13:36:28;97593.78;;;10.65;65.37
50790;BME280;37287;47.554;7.844;2023-03-25T13:38:58;97598.00;;;10.55;66.36
50790;BME280;37287;47.554;7.844;2023-03-25T13:41:31;97601.84;;;10.54;67.36
50790;BME280;37287;47.554;7.844;2023-03-25T13:44:07;97598.34;;;10.50;68.47
50790;BME280;37287;47.554;7.844;2023-03-25T13:46:46;97599.88;;;10.47;68.18
50790;BME280;37287;47.554;7.844;2023-03-25T13:51:58;97606.88;;;10.56;70.59
50790;BME280;37287;47.554;7.844;2023-03-25T13:54:58;97601.13;;;10.75;71.12
50790;BME280;37287;47.554;7.844;2023-03-25T14:00:17;97606.97;;;11.02;74.59
50790;BME280;37287;47.554;7.844;2023-03-25T14:06:10;97601.59;;;11.46;70.04
50790;BME280;37287;47.554;7.844;2023-03-25T14:11:38;97596.56;;;11.48;70.94
50790;BME280;37287;47.554;7.844;2023-03-25T14:14:12;97610.13;;;11.37;69.08
50790;BME280;37287;47.554;7.844;2023-03-25T14:16:47;97594.25;;;11.32;71.71
50790;BME280;37287;47.554;7.844;2023-03-25T14:19:21;97598.09;;;11.24;70.96
50790;BME280;37287;47.554;7.844;2023-03-25T14:21:51;97591.53;;;11.17;70.50
50790;BME280;37287;47.554;7.844;2023-03-25T14:24:25;97586.88;;;11.18;73.93
50790;BME280;37287;47.554;7.844;2023-03-25T14:26:59;97586.50;;;11.12;75.24
50790;BME280;37287;47.554;7.844;2023-03-25T14:34:47;97580.66;;;10.78;74.74
50790;BME280;37287;47.554;7.844;2023-03-25T14:37:24;97597.63;;;10.71;74.15
50790;BME280;37287;47.554;7.844;2023-03-25T14:39:56;97615.25;;;10.29;82.39
50790;BME280;37287;47.554;7.844;2023-03-25T14:42:41;97627.00;;;9.85;90.59
50790;BME280;37287;47.554;7.844;2023-03-25T14:47:58;97681.75;;;8.92;100.00
50790;BME280;37287;47.554;7.844;2023-03-25T14:50:33;97656.53;;;8.77;100.00
50790;BME280;37287;47.554;7.844;2023-03-25T14:53:03;97646.06;;;8.72;100.00
50790;BME280;37287;47.554;7.844;2023-03-25T14:55:41;97656.03;;;8.68;100.00
50790;BME280;37287;47.554;7.844;2023-03-25T14:58:26;97652.22;;;8.42;100.00
50790;BME280;37287;47.554;7.844;2023-03-25T15:01:07;97639.03;;;8.37;100.00
50790;BME280;37287;47.554;7.844;2023-03-25T15:03:37;97642.03;;;8.28;100.00
50790;BME280;37287;47.554;7.844;2023-03-25T15:06:08;97642.47;;;8.34;100.00
50790;BME280;37287;47.554;7.844;2023-03-25T15:08:38;97630.16;;;8.33;100.00
50790;BME280;37287;47.554;7.844;2023-03-25T15:11:14;97632.97;;;8.43;100.00
50790;BME280;37287;47.554;7.844;2023-03-25T15:13:47;97627.28;;;8.49;100.00
50790;BME280;37287;47.554;7.844;2023-03-25T15:16:37;97633.81;;;8.48;100.00
50790;BME280;37287;47.554;7.844;2023-03-25T15:19:19;97640.31;;;8.43;100.00
50790;BME280;37287;47.554;7.844;2023-03-25T15:24:25;97637.09;;;8.34;100.00
50790;BME280;37287;47.554;7.844;2023-03-25T15:26:54;97629.06;;;8.37;100.00
50790;BME280;37287;47.554;7.844;2023-03-25T15:29:29;97626.75;;;8.39;100.00
50790;BME280;37287;47.554;7.844;2023-03-25T15:41:25;97619.94;;;8.83;100.00
50790;BME280;37287;47.554;7.844;2023-03-25T15:54:49;97608.78;;;9.26;100.00
50790;BME280;37287;47.554;7.844;2023-03-25T15:57:23;97601.53;;;9.37;100.00
50790;BME280;37287;47.554;7.844;2023-03-25T16:00:13;97613.50;;;9.36;100.00
50790;BME280;37287;47.554;7.844;2023-03-25T16:05:34;97622.28;;;9.26;94.22